createdAt,value
2019-03-28T15:02:38.877Z,13.40
2019-03-28T15:05:09.960Z,13.30
2019-03-28T15:07:40.548Z,13.30
2019-03-28T15:10:11.410Z,13.20
2019-03-28T15:12:42.137Z,13.00
2019-03-28T15:15:12.912Z,12.90
2019-03-28T15:17:45.137Z,12.90
2019-03-28T15:20:15.911Z,12.80
2019-03-28T15:22:46.438Z,12.70
2019-03-28T15:25:17.559Z,12.70
2019-03-28T15:27:48.096Z,12.80
2019-03-28T15:30:19.074Z,13.00
2019-03-28T15:32:50.474Z,13.00
2019-03-28T15:35:21.131Z,13.20
2019-03-28T15:37:51.934Z,13.30
2019-03-28T15:40:23.051Z,13.50
2019-03-28T15:42:53.630Z,13.60
2019-03-28T15:45:24.589Z,13.70
2019-03-28T15:47:55.270Z,13.70
2019-03-28T15:50:26.216Z,13.70
2019-03-28T15:52:58.935Z,13.50
2019-03-28T15:55:29.768Z,13.30
2019-03-28T15:58:00.985Z,13.20
2019-03-28T16:00:31.629Z,13.10
2019-03-28T16:03:02.558Z,12.90
2019-03-28T16:05:33.286Z,13.00
2019-03-28T16:08:06.485Z,12.90
2019-03-28T16:10:37.417Z,12.80
2019-03-28T16:13:09.384Z,12.80
2019-03-28T16:15:39.644Z,12.80
2019-03-28T16:18:12.183Z,12.60
2019-03-28T16:20:43.217Z,12.70
2019-03-28T16:23:13.919Z,12.70
2019-03-28T16:25:44.899Z,12.60
2019-03-28T16:28:16.283Z,12.40
2019-03-28T16:30:50.173Z,12.30
2019-03-28T16:33:21.176Z,12.30
2019-03-28T16:35:52.451Z,12.20
2019-03-28T16:38:23.174Z,12.20
2019-03-28T16:40:54.528Z,12.10
2019-03-28T16:43:26.130Z,12.10
2019-03-28T16:45:57.828Z,12.10
2019-03-28T16:48:29.175Z,12.00
2019-03-28T16:51:01.023Z,11.90
2019-03-28T16:53:31.657Z,11.80
2019-03-28T16:56:02.362Z,11.80
2019-03-28T16:58:32.939Z,11.70
2019-03-28T17:01:03.817Z,11.70
2019-03-28T17:03:35.148Z,11.70
2019-03-28T17:06:06.180Z,11.70
2019-03-28T17:08:38.079Z,11.60
2019-03-28T17:11:11.944Z,11.60
2019-03-28T17:13:41.291Z,11.50
2019-03-28T17:16:12.298Z,11.40
2019-03-28T17:18:43.468Z,11.40
2019-03-28T17:21:13.881Z,11.40
2019-03-28T17:23:45.071Z,11.40
2019-03-28T17:26:16.568Z,11.30
2019-03-28T17:28:47.552Z,11.20
2019-03-28T17:31:19.005Z,11.20
2019-03-28T17:33:53.000Z,11.20
2019-03-28T17:36:26.685Z,11.10
2019-03-28T17:38:56.351Z,11.00
2019-03-28T17:41:26.981Z,10.90
2019-03-28T17:43:57.200Z,10.70
2019-03-28T17:46:28.355Z,10.60
2019-03-28T17:48:59.598Z,10.40
2019-03-28T17:51:30.432Z,10.30
2019-03-28T17:54:01.001Z,10.20
2019-03-28T17:56:31.730Z,10.00
2019-03-28T17:59:02.561Z,9.80
2019-03-28T18:01:34.095Z,9.80
2019-03-28T18:04:05.852Z,9.60
2019-03-28T18:06:39.767Z,9.40
2019-03-28T18:09:11.623Z,9.20
2019-03-28T18:11:42.549Z,9.10
2019-03-28T18:14:12.795Z,9.00
2019-03-28T18:16:43.710Z,8.90
2019-03-28T18:19:14.989Z,8.80
2019-03-28T18:21:46.615Z,8.70
2019-03-28T18:24:17.993Z,8.60
2019-03-28T18:26:48.689Z,8.50
2019-03-28T18:29:19.734Z,8.60
2019-03-28T18:31:52.556Z,8.50
2019-03-28T18:34:23.392Z,8.70
2019-03-28T18:36:57.103Z,8.70
2019-03-28T18:39:30.681Z,8.60
2019-03-28T18:42:02.100Z,8.60
2019-03-28T18:44:33.056Z,8.60
2019-03-28T18:47:03.674Z,8.60
2019-03-28T18:49:34.382Z,8.70
2019-03-28T18:52:07.907Z,8.80
2019-03-28T18:54:38.180Z,8.80
2019-03-28T18:57:08.851Z,8.80
2019-03-28T18:59:39.406Z,8.90
2019-03-28T19:02:14.140Z,9.00
2019-03-28T19:04:45.163Z,9.00
2019-03-28T19:07:15.883Z,9.00
2019-03-28T19:09:46.593Z,9.00
2019-03-28T19:12:17.988Z,9.00
2019-03-28T19:14:49.015Z,9.00
2019-03-28T19:17:19.651Z,9.00
2019-03-28T19:19:50.903Z,9.10
2019-03-28T19:22:22.273Z,9.10
2019-03-28T19:24:55.254Z,9.10
2019-03-28T19:27:25.590Z,9.10
2019-03-28T19:29:55.574Z,9.10
2019-03-28T19:32:29.616Z,9.10
2019-03-28T19:35:02.603Z,9.10
2019-03-28T19:37:31.631Z,9.00
2019-03-28T19:40:02.856Z,9.10
2019-03-28T19:42:34.278Z,9.10
2019-03-28T19:45:04.777Z,9.10
2019-03-28T19:47:36.132Z,9.10
2019-03-28T19:50:07.670Z,9.20
2019-03-28T19:52:38.567Z,9.10
2019-03-28T19:55:12.245Z,9.20
2019-03-28T19:57:43.260Z,9.20
2019-03-28T20:00:14.159Z,9.20
2019-03-28T20:02:44.450Z,9.20
2019-03-28T20:05:15.163Z,9.20
2019-03-28T20:07:46.135Z,9.10
2019-03-28T20:10:18.572Z,9.20
2019-03-28T20:12:49.950Z,9.20
2019-03-28T20:15:21.301Z,9.20
2019-03-28T20:17:51.999Z,9.10
2019-03-28T20:20:22.925Z,9.10
2019-03-28T20:22:53.060Z,9.00
2019-03-28T20:25:24.403Z,9.00
2019-03-28T20:27:55.390Z,8.80
2019-03-28T20:30:27.714Z,8.60
2019-03-28T20:32:58.544Z,8.60
2019-03-28T20:35:29.585Z,8.50
2019-03-28T20:38:00.564Z,8.50
2019-03-28T20:40:31.587Z,8.50
2019-03-28T20:43:02.948Z,8.40
2019-03-28T20:45:33.763Z,8.30
2019-03-28T20:48:07.077Z,8.20
2019-03-28T20:50:38.277Z,8.20
2019-03-28T20:53:12.057Z,8.20
2019-03-28T20:55:43.241Z,8.30
2019-03-28T20:58:14.701Z,8.30
